sensor_id;sensor_type;location;lat;lon;timestamp;P1;durP1;ratioP1;P2;durP2;ratioP2
84616;SDS011;74846;51.126;16.944;2024-01-15T00:02:02;9.30;;;5.00;;
84616;SDS011;74846;51.126;16.944;2024-01-15T00:04:29;10.90;;;6.10;;
84616;SDS011;74846;51.126;16.944;2024-01-15T00:06:56;12.50;;;5.70;;
84616;SDS011;74846;51.126;16.944;2024-01-15T00:09:23;17.40;;;7.10;;
84616;SDS011;74846;51.126;16.944;2024-01-15T00:11:50;14.00;;;7.20;;
84616;SDS011;74846;51.126;16.944;2024-01-15T00:14:17;11.40;;;6.90;;
84616;SDS011;74846;51.126;16.944;2024-01-15T00:16:46;14.90;;;7.80;;
84616;SDS011;74846;51.126;16.944;2024-01-15T00:19:15;13.80;;;7.00;;
84616;SDS011;74846;51.126;16.944;2024-01-15T00:21:43;13.90;;;6.90;;
84616;SDS011;74846;51.126;16.944;2024-01-15T00:24:10;13.60;;;7.40;;
84616;SDS011;74846;51.126;16.944;2024-01-15T00:26:37;12.30;;;5.60;;
84616;SDS011;74846;51.126;16.944;2024-01-15T00:29:03;11.80;;;5.80;;
84616;SDS011;74846;51.126;16.944;2024-01-15T00:31:30;12.30;;;5.30;;
84616;SDS011;74846;51.126;16.944;2024-01-15T00:33:57;12.60;;;6.50;;
84616;SDS011;74846;51.126;16.944;2024-01-15T00:36:24;9.80;;;6.00;;
84616;SDS011;74846;51.126;16.944;2024-01-15T00:38:51;12.20;;;5.90;;
84616;SDS011;74846;51.126;16.944;2024-01-15T00:41:18;11.80;;;5.80;;
84616;SDS011;74846;51.126;16.944;2024-01-15T00:43:45;10.40;;;5.50;;
84616;SDS011;74846;51.126;16.944;2024-01-15T00:46:12;10.80;;;6.00;;
84616;SDS011;74846;51.126;16.944;2024-01-15T00:48:38;11.30;;;5.60;;
84616;SDS011;74846;51.126;16.944;2024-01-15T00:51:05;11.60;;;6.10;;
84616;SDS011;74846;51.126;16.944;2024-01-15T00:53:32;11.60;;;6.40;;
84616;SDS011;74846;51.126;16.944;2024-01-15T00:55:59;12.10;;;5.80;;
84616;SDS011;74846;51.126;16.944;2024-01-15T00:58:26;12.20;;;5.50;;
84616;SDS011;74846;51.126;16.944;2024-01-15T01:00:53;9.70;;;5.10;;
84616;SDS011;74846;51.126;16.944;2024-01-15T01:03:20;11.40;;;5.30;;
84616;SDS011;74846;51.126;16.944;2024-01-15T01:05:50;11.00;;;5.10;;
84616;SDS011;74846;51.126;16.944;2024-01-15T01:08:17;10.00;;;5.50;;
84616;SDS011;74846;51.126;16.944;2024-01-15T01:13:44;9.70;;;5.40;;
84616;SDS011;74846;51.126;16.944;2024-01-15T01:16:10;9.60;;;5.00;;
84616;SDS011;74846;51.126;16.944;2024-01-15T01:18:37;8.70;;;5.20;;
84616;SDS011;74846;51.126;16.944;2024-01-15T01:21:04;9.20;;;5.20;;
84616;SDS011;74846;51.126;16.944;2024-01-15T01:23:30;9.60;;;4.90;;
84616;SDS011;74846;51.126;16.944;2024-01-15T01:25:57;12.50;;;6.00;;
84616;SDS011;74846;51.126;16.944;2024-01-15T01:28:23;9.30;;;5.00;;
84616;SDS011;74846;51.126;16.944;2024-01-15T01:30:50;6.60;;;4.40;;
84616;SDS011;74846;51.126;16.944;2024-01-15T01:33:17;9.20;;;5.30;;
84616;SDS011;74846;51.126;16.944;2024-01-15T01:35:44;9.00;;;5.10;;
84616;SDS011;74846;51.126;16.944;2024-01-15T01:38:11;11.40;;;5.40;;
84616;SDS011;74846;51.126;16.944;2024-01-15T01:40:38;9.00;;;5.00;;
84616;SDS011;74846;51.126;16.944;2024-01-15T01:43:04;11.10;;;5.40;;
84616;SDS011;74846;51.126;16.944;2024-01-15T01:45:31;10.30;;;5.10;;
84616;SDS011;74846;51.126;16.944;2024-01-15T01:47:58;6.60;;;4.30;;
84616;SDS011;74846;51.126;16.944;2024-01-15T01:50:27;9.50;;;5.20;;
84616;SDS011;74846;51.126;16.944;2024-01-15T01:52:56;10.10;;;4.40;;
84616;SDS011;74846;51.126;16.944;2024-01-15T01:55:23;8.00;;;4.40;;
84616;SDS011;74846;51.126;16.944;2024-01-15T01:57:52;6.90;;;4.10;;
84616;SDS011;74846;51.126;16.944;2024-01-15T02:00:20;10.60;;;5.10;;
84616;SDS011;74846;51.126;16.944;2024-01-15T02:02:47;10.00;;;5.10;;
84616;SDS011;74846;51.126;16.944;2024-01-15T02:05:14;10.40;;;4.40;;
84616;SDS011;74846;51.126;16.944;2024-01-15T02:07:44;9.80;;;5.20;;
84616;SDS011;74846;51.126;16.944;2024-01-15T02:10:11;9.80;;;5.00;;
84616;SDS011;74846;51.126;16.944;2024-01-15T02:12:38;7.50;;;3.90;;
84616;SDS011;74846;51.126;16.944;2024-01-15T02:15:05;9.20;;;5.20;;
84616;SDS011;74846;51.126;16.944;2024-01-15T02:17:32;9.80;;;5.20;;
84616;SDS011;74846;51.126;16.944;2024-01-15T02:19:58;8.00;;;4.10;;
84616;SDS011;74846;51.126;16.944;2024-01-15T02:22:25;12.50;;;5.40;;
84616;SDS011;74846;51.126;16.944;2024-01-15T02:24:51;9.10;;;5.10;;
84616;SDS011;74846;51.126;16.944;2024-01-15T02:27:18;11.10;;;5.50;;
84616;SDS011;74846;51.126;16.944;2024-01-15T02:29:45;9.40;;;4.70;;
84616;SDS011;74846;51.126;16.944;2024-01-15T02:32:12;9.70;;;5.20;;
84616;SDS011;74846;51.126;16.944;2024-01-15T02:34:39;8.00;;;4.70;;
84616;SDS011;74846;51.126;16.944;2024-01-15T02:37:06;10.10;;;4.70;;
84616;SDS011;74846;51.126;16.944;2024-01-15T02:39:32;9.10;;;4.80;;
84616;SDS011;74846;51.126;16.944;2024-01-15T02:41:59;7.50;;;3.80;;
84616;SDS011;74846;51.126;16.944;2024-01-15T02:44:25;7.60;;;4.30;;
84616;SDS011;74846;51.126;16.944;2024-01-15T02:46:52;8.80;;;4.70;;
84616;SDS011;74846;51.126;16.944;2024-01-15T02:49:19;6.70;;;3.90;;
84616;SDS011;74846;51.126;16.944;2024-01-15T02:51:45;8.90;;;5.20;;
84616;SDS011;74846;51.126;16.944;2024-01-15T02:54:13;7.50;;;4.30;;
84616;SDS011;74846;51.126;16.944;2024-01-15T02:56:39;7.20;;;3.70;;
84616;SDS011;74846;51.126;16.944;2024-01-15T02:59:06;9.00;;;4.60;;
84616;SDS011;74846;51.126;16.944;2024-01-15T03:01:33;7.30;;;4.20;;
84616;SDS011;74846;51.126;16.944;2024-01-15T03:03:59;8.20;;;4.30;;
84616;SDS011;74846;51.126;16.944;2024-01-15T03:06:26;5.50;;;3.70;;
84616;SDS011;74846;51.126;16.944;2024-01-15T03:08:53;6.50;;;3.80;;
84616;SDS011;74846;51.126;16.944;2024-01-15T03:11:19;8.50;;;4.30;;
84616;SDS011;74846;51.126;16.944;2024-01-15T03:13:46;8.80;;;3.70;;
84616;SDS011;74846;51.126;16.944;2024-01-15T03:16:12;6.60;;;3.60;;
84616;SDS011;74846;51.126;16.944;2024-01-15T03:18:39;6.00;;;3.20;;
84616;SDS011;74846;51.126;16.944;2024-01-15T03:21:06;7.30;;;4.30;;
84616;SDS011;74846;51.126;16.944;2024-01-15T03:23:33;6.80;;;4.30;;
84616;SDS011;74846;51.126;16.944;2024-01-15T03:25:59;7.80;;;4.30;;
84616;SDS011;74846;51.126;16.944;2024-01-15T03:28:26;7.40;;;4.00;;
84616;SDS011;74846;51.126;16.944;2024-01-15T03:30:53;7.60;;;3.70;;
84616;SDS011;74846;51.126;16.944;2024-01-15T03:33:19;8.90;;;4.40;;
84616;SDS011;74846;51.126;16.944;2024-01-15T03:35:46;7.20;;;3.70;;
84616;SDS011;74846;51.126;16.944;2024-01-15T03:38:13;9.40;;;4.50;;
84616;SDS011;74846;51.126;16.944;2024-01-15T03:40:39;6.90;;;4.10;;
84616;SDS011;74846;51.126;16.944;2024-01-15T03:43:06;6.60;;;3.50;;
84616;SDS011;74846;51.126;16.944;2024-01-15T03:45:33;6.70;;;3.70;;
84616;SDS011;74846;51.126;16.944;2024-01-15T03:47:59;7.50;;;3.90;;
84616;SDS011;74846;51.126;16.944;2024-01-15T03:50:26;11.50;;;5.00;;
84616;SDS011;74846;51.126;16.944;2024-01-15T03:52:52;9.70;;;4.70;;
84616;SDS011;74846;51.126;16.944;2024-01-15T03:55:19;8.80;;;4.80;;
84616;SDS011;74846;51.126;16.944;2024-01-15T03:57:45;11.10;;;4.70;;
84616;SDS011;74846;51.126;16.944;2024-01-15T04:00:14;12.00;;;5.90;;
84616;SDS011;74846;51.126;16.944;2024-01-15T04:02:43;11.70;;;5.00;;
84616;SDS011;74846;51.126;16.944;2024-01-15T04:05:10;11.40;;;5.10;;
84616;SDS011;74846;51.126;16.944;2024-01-15T04:07:37;12.90;;;5.80;;
84616;SDS011;74846;51.126;16.944;2024-01-15T04:10:04;12.40;;;5.70;;
84616;SDS011;74846;51.126;16.944;2024-01-15T04:12:31;10.90;;;5.00;;
84616;SDS011;74846;51.126;16.944;2024-01-15T04:14:58;10.60;;;4.60;;
84616;SDS011;74846;51.126;16.944;2024-01-15T04:17:24;6.90;;;3.90;;
84616;SDS011;74846;51.126;16.944;2024-01-15T04:19:51;8.50;;;3.90;;
84616;SDS011;74846;51.126;16.944;2024-01-15T04:22:18;4.00;;;2.10;;
84616;SDS011;74846;51.126;16.944;2024-01-15T04:24:44;7.20;;;2.90;;
84616;SDS011;74846;51.126;16.944;2024-01-15T04:27:11;5.90;;;2.90;;
84616;SDS011;74846;51.126;16.944;2024-01-15T04:29:38;4.50;;;2.50;;
84616;SDS011;74846;51.126;16.944;2024-01-15T04:32:07;5.40;;;2.90;;
84616;SDS011;74846;51.126;16.944;2024-01-15T04:34:34;5.30;;;2.60;;
84616;SDS011;74846;51.126;16.944;2024-01-15T04:37:01;4.60;;;2.70;;
84616;SDS011;74846;51.126;16.944;2024-01-15T04:39:27;5.60;;;3.00;;
84616;SDS011;74846;51.126;16.944;2024-01-15T04:41:54;8.00;;;3.50;;
84616;SDS011;74846;51.126;16.944;2024-01-15T04:44:22;7.10;;;3.30;;
84616;SDS011;74846;51.126;16.944;2024-01-15T04:46:48;5.60;;;2.90;;
84616;SDS011;74846;51.126;16.944;2024-01-15T04:49:15;8.50;;;3.90;;
84616;SDS011;74846;51.126;16.944;2024-01-15T04:51:42;6.60;;;2.90;;
84616;SDS011;74846;51.126;16.944;2024-01-15T04:54:08;6.30;;;3.20;;
84616;SDS011;74846;51.126;16.944;2024-01-15T04:56:35;4.00;;;2.20;;
84616;SDS011;74846;51.126;16.944;2024-01-15T04:59:01;5.10;;;2.90;;
84616;SDS011;74846;51.126;16.944;2024-01-15T05:01:32;5.50;;;2.70;;
84616;SDS011;74846;51.126;16.944;2024-01-15T05:03:59;5.20;;;2.90;;
84616;SDS011;74846;51.126;16.944;2024-01-15T05:06:26;6.30;;;3.50;;
84616;SDS011;74846;51.126;16.944;2024-01-15T05:08:53;5.10;;;2.70;;
84616;SDS011;74846;51.126;16.944;2024-01-15T05:11:20;5.70;;;3.60;;
84616;SDS011;74846;51.126;16.944;2024-01-15T05:13:46;6.30;;;2.90;;
84616;SDS011;74846;51.126;16.944;2024-01-15T05:16:13;6.20;;;2.90;;
84616;SDS011;74846;51.126;16.944;2024-01-15T05:18:40;5.70;;;2.80;;
84616;SDS011;74846;51.126;16.944;2024-01-15T05:21:06;4.60;;;2.80;;
84616;SDS011;74846;51.126;16.944;2024-01-15T05:23:33;5.10;;;3.00;;
84616;SDS011;74846;51.126;16.944;2024-01-15T05:26:00;4.60;;;2.20;;
84616;SDS011;74846;51.126;16.944;2024-01-15T05:28:27;6.20;;;3.00;;
84616;SDS011;74846;51.126;16.944;2024-01-15T05:30:54;5.30;;;2.60;;
84616;SDS011;74846;51.126;16.944;2024-01-15T05:33:22;4.90;;;2.50;;
84616;SDS011;74846;51.126;16.944;2024-01-15T05:35:50;4.90;;;2.10;;
84616;SDS011;74846;51.126;16.944;2024-01-15T05:38:16;7.00;;;3.30;;
84616;SDS011;74846;51.126;16.944;2024-01-15T05:40:43;5.40;;;3.50;;
84616;SDS011;74846;51.126;16.944;2024-01-15T05:43:10;8.20;;;3.70;;
84616;SDS011;74846;51.126;16.944;2024-01-15T05:45:38;7.00;;;3.10;;
84616;SDS011;74846;51.126;16.944;2024-01-15T05:48:05;4.80;;;2.50;;
84616;SDS011;74846;51.126;16.944;2024-01-15T05:50:32;6.60;;;2.70;;
84616;SDS011;74846;51.126;16.944;2024-01-15T05:52:59;4.90;;;2.90;;
84616;SDS011;74846;51.126;16.944;2024-01-15T05:55:25;6.00;;;3.10;;
84616;SDS011;74846;51.126;16.944;2024-01-15T05:57:52;3.10;;;2.30;;
84616;SDS011;74846;51.126;16.944;2024-01-15T06:00:19;5.70;;;3.00;;
84616;SDS011;74846;51.126;16.944;2024-01-15T06:02:45;7.00;;;3.50;;
84616;SDS011;74846;51.126;16.944;2024-01-15T06:05:12;7.80;;;3.60;;
84616;SDS011;74846;51.126;16.944;2024-01-15T06:07:39;6.70;;;3.50;;
84616;SDS011;74846;51.126;16.944;2024-01-15T06:10:05;4.80;;;2.90;;
84616;SDS011;74846;51.126;16.944;2024-01-15T06:12:32;8.00;;;3.50;;
84616;SDS011;74846;51.126;16.944;2024-01-15T06:15:00;5.90;;;2.80;;
84616;SDS011;74846;51.126;16.944;2024-01-15T06:17:26;4.90;;;2.60;;
84616;SDS011;74846;51.126;16.944;2024-01-15T06:19:53;5.90;;;3.20;;
84616;SDS011;74846;51.126;16.944;2024-01-15T06:22:20;5.60;;;3.00;;
84616;SDS011;74846;51.126;16.944;2024-01-15T06:24:46;5.50;;;2.40;;
84616;SDS011;74846;51.126;16.944;2024-01-15T06:27:13;5.40;;;2.80;;
84616;SDS011;74846;51.126;16.944;2024-01-15T06:29:44;5.70;;;3.40;;
84616;SDS011;74846;51.126;16.944;2024-01-15T06:32:16;6.00;;;3.00;;
84616;SDS011;74846;51.126;16.944;2024-01-15T06:34:43;7.00;;;3.40;;
84616;SDS011;74846;51.126;16.944;2024-01-15T06:37:10;5.80;;;2.90;;
84616;SDS011;74846;51.126;16.944;2024-01-15T06:39:36;7.10;;;3.50;;
84616;SDS011;74846;51.126;16.944;2024-01-15T06:42:03;6.50;;;3.40;;
84616;SDS011;74846;51.126;16.944;2024-01-15T06:44:30;4.70;;;2.50;;
84616;SDS011;74846;51.126;16.944;2024-01-15T06:46:56;5.90;;;3.20;;
84616;SDS011;74846;51.126;16.944;2024-01-15T06:49:28;8.90;;;4.20;;
84616;SDS011;74846;51.126;16.944;2024-01-15T06:51:56;6.20;;;2.90;;
84616;SDS011;74846;51.126;16.944;2024-01-15T06:54:22;4.90;;;2.50;;
84616;SDS011;74846;51.126;16.944;2024-01-15T06:56:50;6.70;;;3.00;;
84616;SDS011;74846;51.126;16.944;2024-01-15T06:59:16;8.90;;;3.90;;
84616;SDS011;74846;51.126;16.944;2024-01-15T07:01:46;5.80;;;3.10;;
84616;SDS011;74846;51.126;16.944;2024-01-15T07:04:12;7.20;;;3.90;;
84616;SDS011;74846;51.126;16.944;2024-01-15T07:06:39;8.10;;;3.70;;
84616;SDS011;74846;51.126;16.944;2024-01-15T07:09:06;5.90;;;2.80;;
84616;SDS011;74846;51.126;16.944;2024-01-15T07:11:34;10.00;;;4.70;;
84616;SDS011;74846;51.126;16.944;2024-01-15T07:14:00;6.70;;;3.40;;
84616;SDS011;74846;51.126;16.944;2024-01-15T07:16:27;10.60;;;4.30;;
84616;SDS011;74846;51.126;16.944;2024-01-15T07:19:04;9.20;;;4.40;;
84616;SDS011;74846;51.126;16.944;2024-01-15T07:21:31;10.30;;;4.70;;
84616;SDS011;74846;51.126;16.944;2024-01-15T07:23:57;9.20;;;4.20;;
84616;SDS011;74846;51.126;16.944;2024-01-15T07:26:24;7.20;;;3.20;;
84616;SDS011;74846;51.126;16.944;2024-01-15T07:28:51;6.60;;;3.50;;
84616;SDS011;74846;51.126;16.944;2024-01-15T07:31:17;8.00;;;3.90;;
84616;SDS011;74846;51.126;16.944;2024-01-15T07:33:44;8.30;;;3.70;;
84616;SDS011;74846;51.126;16.944;2024-01-15T07:36:12;9.60;;;3.80;;
84616;SDS011;74846;51.126;16.944;2024-01-15T07:38:39;6.40;;;3.80;;
84616;SDS011;74846;51.126;16.944;2024-01-15T07:41:05;6.20;;;3.40;;
84616;SDS011;74846;51.126;16.944;2024-01-15T07:43:32;8.10;;;4.30;;
84616;SDS011;74846;51.126;16.944;2024-01-15T07:45:58;6.30;;;3.40;;
84616;SDS011;74846;51.126;16.944;2024-01-15T07:48:26;9.70;;;4.00;;
84616;SDS011;74846;51.126;16.944;2024-01-15T07:50:53;6.90;;;3.20;;
84616;SDS011;74846;51.126;16.944;2024-01-15T07:53:20;5.80;;;3.40;;
84616;SDS011;74846;51.126;16.944;2024-01-15T07:55:47;8.60;;;3.60;;
84616;SDS011;74846;51.126;16.944;2024-01-15T07:58:13;8.50;;;3.80;;
84616;SDS011;74846;51.126;16.944;2024-01-15T08:00:43;7.50;;;3.40;;
84616;SDS011;74846;51.126;16.944;2024-01-15T08:03:10;6.80;;;3.70;;
84616;SDS011;74846;51.126;16.944;2024-01-15T08:05:38;7.10;;;3.30;;
84616;SDS011;74846;51.126;16.944;2024-01-15T08:08:05;5.40;;;2.10;;
84616;SDS011;74846;51.126;16.944;2024-01-15T08:10:32;7.40;;;3.30;;
84616;SDS011;74846;51.126;16.944;2024-01-15T08:12:58;6.00;;;3.20;;
84616;SDS011;74846;51.126;16.944;2024-01-15T08:15:25;7.30;;;3.30;;
84616;SDS011;74846;51.126;16.944;2024-01-15T08:17:56;7.70;;;3.70;;
84616;SDS011;74846;51.126;16.944;2024-01-15T08:20:23;5.90;;;3.20;;
84616;SDS011;74846;51.126;16.944;2024-01-15T08:22:50;8.70;;;3.90;;
84616;SDS011;74846;51.126;16.944;2024-01-15T08:25:17;4.90;;;2.70;;
84616;SDS011;74846;51.126;16.944;2024-01-15T08:27:43;8.80;;;3.10;;
84616;SDS011;74846;51.126;16.944;2024-01-15T08:30:10;6.70;;;3.20;;
84616;SDS011;74846;51.126;16.944;2024-01-15T08:32:37;5.40;;;2.90;;
84616;SDS011;74846;51.126;16.944;2024-01-15T08:35:08;5.00;;;2.60;;
84616;SDS011;74846;51.126;16.944;2024-01-15T08:37:36;5.20;;;2.80;;
84616;SDS011;74846;51.126;16.944;2024-01-15T08:40:03;7.20;;;3.30;;
84616;SDS011;74846;51.126;16.944;2024-01-15T08:42:31;8.30;;;3.70;;
84616;SDS011;74846;51.126;16.944;2024-01-15T08:44:57;6.30;;;2.60;;
84616;SDS011;74846;51.126;16.944;2024-01-15T08:47:24;6.60;;;3.50;;
84616;SDS011;74846;51.126;16.944;2024-01-15T08:49:51;4.90;;;3.10;;
84616;SDS011;74846;51.126;16.944;2024-01-15T08:52:18;5.20;;;2.80;;
84616;SDS011;74846;51.126;16.944;2024-01-15T08:54:46;6.50;;;2.70;;
84616;SDS011;74846;51.126;16.944;2024-01-15T08:57:13;3.60;;;2.20;;
84616;SDS011;74846;51.126;16.944;2024-01-15T08:59:40;8.50;;;3.10;;
84616;SDS011;74846;51.126;16.944;2024-01-15T09:02:07;7.20;;;3.50;;
84616;SDS011;74846;51.126;16.944;2024-01-15T09:04:34;5.40;;;2.60;;
84616;SDS011;74846;51.126;16.944;2024-01-15T09:07:01;7.80;;;3.20;;
84616;SDS011;74846;51.126;16.944;2024-01-15T09:09:28;6.50;;;3.40;;
84616;SDS011;74846;51.126;16.944;2024-01-15T09:11:54;4.80;;;2.60;;
84616;SDS011;74846;51.126;16.944;2024-01-15T09:14:21;5.90;;;2.20;;
84616;SDS011;74846;51.126;16.944;2024-01-15T09:17:03;6.80;;;2.60;;
84616;SDS011;74846;51.126;16.944;2024-01-15T09:19:30;8.30;;;3.00;;
84616;SDS011;74846;51.126;16.944;2024-01-15T09:21:57;6.10;;;3.20;;
84616;SDS011;74846;51.126;16.944;2024-01-15T09:24:24;7.20;;;2.80;;
84616;SDS011;74846;51.126;16.944;2024-01-15T09:26:54;5.80;;;3.00;;
84616;SDS011;74846;51.126;16.944;2024-01-15T09:29:21;6.20;;;2.70;;
84616;SDS011;74846;51.126;16.944;2024-01-15T09:31:49;5.00;;;2.50;;
84616;SDS011;74846;51.126;16.944;2024-01-15T09:34:17;5.80;;;2.00;;
84616;SDS011;74846;51.126;16.944;2024-01-15T09:36:44;6.50;;;2.90;;
84616;SDS011;74846;51.126;16.944;2024-01-15T09:39:11;7.90;;;3.00;;
84616;SDS011;74846;51.126;16.944;2024-01-15T09:41:38;7.30;;;2.70;;
84616;SDS011;74846;51.126;16.944;2024-01-15T09:44:05;8.10;;;3.00;;
84616;SDS011;74846;51.126;16.944;2024-01-15T09:46:34;9.40;;;3.30;;
84616;SDS011;74846;51.126;16.944;2024-01-15T09:49:01;6.00;;;2.60;;
84616;SDS011;74846;51.126;16.944;2024-01-15T09:51:31;8.80;;;2.80;;
84616;SDS011;74846;51.126;16.944;2024-01-15T09:53:58;7.40;;;3.20;;
84616;SDS011;74846;51.126;16.944;2024-01-15T09:56:26;3.50;;;1.80;;
84616;SDS011;74846;51.126;16.944;2024-01-15T09:58:53;4.30;;;2.10;;
84616;SDS011;74846;51.126;16.944;2024-01-15T10:01:20;4.50;;;2.40;;
84616;SDS011;74846;51.126;16.944;2024-01-15T10:03:47;6.80;;;2.50;;
84616;SDS011;74846;51.126;16.944;2024-01-15T10:06:17;4.70;;;2.10;;
84616;SDS011;74846;51.126;16.944;2024-01-15T10:08:49;7.30;;;2.80;;
84616;SDS011;74846;51.126;16.944;2024-01-15T10:11:17;5.10;;;2.90;;
84616;SDS011;74846;51.126;16.944;2024-01-15T10:13:43;6.30;;;2.60;;
84616;SDS011;74846;51.126;16.944;2024-01-15T10:16:12;5.40;;;2.50;;
84616;SDS011;74846;51.126;16.944;2024-01-15T10:18:39;4.50;;;2.40;;
84616;SDS011;74846;51.126;16.944;2024-01-15T10:21:06;4.70;;;2.00;;
84616;SDS011;74846;51.126;16.944;2024-01-15T10:23:34;5.70;;;2.80;;
84616;SDS011;74846;51.126;16.944;2024-01-15T10:26:00;4.80;;;2.90;;
84616;SDS011;74846;51.126;16.944;2024-01-15T10:28:29;5.60;;;2.70;;
84616;SDS011;74846;51.126;16.944;2024-01-15T10:30:57;5.20;;;2.70;;
84616;SDS011;74846;51.126;16.944;2024-01-15T10:33:25;3.40;;;2.00;;
84616;SDS011;74846;51.126;16.944;2024-01-15T10:35:56;5.00;;;2.30;;
84616;SDS011;74846;51.126;16.944;2024-01-15T10:38:24;8.70;;;2.80;;
84616;SDS011;74846;51.126;16.944;2024-01-15T10:40:51;5.30;;;2.70;;
84616;SDS011;74846;51.126;16.944;2024-01-15T10:43:19;7.30;;;2.70;;
84616;SDS011;74846;51.126;16.944;2024-01-15T10:45:48;7.90;;;3.10;;
84616;SDS011;74846;51.126;16.944;2024-01-15T10:48:17;9.50;;;3.00;;
84616;SDS011;74846;51.126;16.944;2024-01-15T10:50:46;9.10;;;2.90;;
84616;SDS011;74846;51.126;16.944;2024-01-15T10:53:14;6.40;;;2.70;;
84616;SDS011;74846;51.126;16.944;2024-01-15T10:55:42;7.10;;;2.80;;
84616;SDS011;74846;51.126;16.944;2024-01-15T10:58:09;6.90;;;3.10;;
84616;SDS011;74846;51.126;16.944;2024-01-15T11:00:36;5.40;;;2.20;;
84616;SDS011;74846;51.126;16.944;2024-01-15T11:03:04;6.00;;;2.80;;
84616;SDS011;74846;51.126;16.944;2024-01-15T11:05:39;6.10;;;2.70;;
84616;SDS011;74846;51.126;16.944;2024-01-15T11:08:08;5.60;;;2.40;;
84616;SDS011;74846;51.126;16.944;2024-01-15T11:10:43;4.10;;;2.10;;
84616;SDS011;74846;51.126;16.944;2024-01-15T11:13:20;6.90;;;2.70;;
84616;SDS011;74846;51.126;16.944;2024-01-15T11:16:05;8.20;;;3.00;;
84616;SDS011;74846;51.126;16.944;2024-01-15T11:18:36;5.30;;;2.20;;
84616;SDS011;74846;51.126;16.944;2024-01-15T11:23:44;6.50;;;2.50;;
84616;SDS011;74846;51.126;16.944;2024-01-15T11:29:28;6.10;;;2.70;;
84616;SDS011;74846;51.126;16.944;2024-01-15T11:37:16;6.70;;;2.90;;
84616;SDS011;74846;51.126;16.944;2024-01-15T11:39:42;6.70;;;2.70;;
84616;SDS011;74846;51.126;16.944;2024-01-15T11:42:09;7.00;;;2.80;;
84616;SDS011;74846;51.126;16.944;2024-01-15T11:44:38;6.40;;;2.60;;
84616;SDS011;74846;51.126;16.944;2024-01-15T11:47:05;10.20;;;2.90;;
84616;SDS011;74846;51.126;16.944;2024-01-15T11:49:52;5.00;;;2.10;;
84616;SDS011;74846;51.126;16.944;2024-01-15T11:52:33;8.10;;;3.20;;
84616;SDS011;74846;51.126;16.944;2024-01-15T11:55:11;8.70;;;3.50;;
84616;SDS011;74846;51.126;16.944;2024-01-15T11:57:45;4.90;;;2.50;;
84616;SDS011;74846;51.126;16.944;2024-01-15T12:00:13;8.00;;;2.80;;
84616;SDS011;74846;51.126;16.944;2024-01-15T12:02:42;8.40;;;2.90;;
84616;SDS011;74846;51.126;16.944;2024-01-15T12:05:10;8.40;;;3.40;;
84616;SDS011;74846;51.126;16.944;2024-01-15T12:07:39;6.20;;;2.40;;
84616;SDS011;74846;51.126;16.944;2024-01-15T12:12:45;6.50;;;2.80;;
84616;SDS011;74846;51.126;16.944;2024-01-15T12:15:14;7.90;;;2.80;;
84616;SDS011;74846;51.126;16.944;2024-01-15T12:17:41;8.80;;;2.60;;
84616;SDS011;74846;51.126;16.944;2024-01-15T12:20:08;5.80;;;2.30;;
84616;SDS011;74846;51.126;16.944;2024-01-15T12:22:35;6.80;;;2.50;;
84616;SDS011;74846;51.126;16.944;2024-01-15T12:25:22;4.40;;;2.30;;
84616;SDS011;74846;51.126;16.944;2024-01-15T12:27:49;6.10;;;2.60;;
84616;SDS011;74846;51.126;16.944;2024-01-15T12:30:17;5.00;;;2.30;;
84616;SDS011;74846;51.126;16.944;2024-01-15T12:32:43;8.60;;;3.30;;
84616;SDS011;74846;51.126;16.944;2024-01-15T12:35:10;6.60;;;2.90;;
84616;SDS011;74846;51.126;16.944;2024-01-15T12:37:37;5.90;;;2.60;;
84616;SDS011;74846;51.126;16.944;2024-01-15T12:40:09;4.70;;;1.80;;
84616;SDS011;74846;51.126;16.944;2024-01-15T12:42:37;6.90;;;2.50;;
84616;SDS011;74846;51.126;16.944;2024-01-15T12:45:07;6.00;;;3.50;;
84616;SDS011;74846;51.126;16.944;2024-01-15T12:47:38;7.90;;;2.90;;
84616;SDS011;74846;51.126;16.944;2024-01-15T12:50:06;7.00;;;2.50;;
84616;SDS011;74846;51.126;16.944;2024-01-15T12:52:45;5.00;;;2.40;;
84616;SDS011;74846;51.126;16.944;2024-01-15T12:55:13;6.20;;;2.30;;
84616;SDS011;74846;51.126;16.944;2024-01-15T12:57:40;5.50;;;2.70;;
84616;SDS011;74846;51.126;16.944;2024-01-15T13:00:06;5.50;;;2.60;;
84616;SDS011;74846;51.126;16.944;2024-01-15T13:02:40;5.40;;;2.60;;
84616;SDS011;74846;51.126;16.944;2024-01-15T13:05:09;6.70;;;2.90;;
84616;SDS011;74846;51.126;16.944;2024-01-15T13:07:38;7.20;;;2.90;;
84616;SDS011;74846;51.126;16.944;2024-01-15T13:10:05;6.70;;;2.90;;
84616;SDS011;74846;51.126;16.944;2024-01-15T13:12:33;5.70;;;2.70;;
84616;SDS011;74846;51.126;16.944;2024-01-15T13:15:00;2.40;;;1.50;;
84616;SDS011;74846;51.126;16.944;2024-01-15T13:17:29;5.30;;;2.30;;
84616;SDS011;74846;51.126;16.944;2024-01-15T13:19:56;6.30;;;2.80;;
84616;SDS011;74846;51.126;16.944;2024-01-15T13:22:23;6.70;;;3.00;;
84616;SDS011;74846;51.126;16.944;2024-01-15T13:24:55;9.50;;;3.40;;
84616;SDS011;74846;51.126;16.944;2024-01-15T13:27:22;7.50;;;2.90;;
84616;SDS011;74846;51.126;16.944;2024-01-15T13:29:49;5.60;;;2.80;;
84616;SDS011;74846;51.126;16.944;2024-01-15T13:32:22;8.50;;;3.30;;
84616;SDS011;74846;51.126;16.944;2024-01-15T13:34:52;12.60;;;3.50;;
84616;SDS011;74846;51.126;16.944;2024-01-15T13:37:19;10.30;;;3.30;;
84616;SDS011;74846;51.126;16.944;2024-01-15T13:39:46;10.70;;;3.50;;
84616;SDS011;74846;51.126;16.944;2024-01-15T13:42:13;6.00;;;2.50;;
84616;SDS011;74846;51.126;16.944;2024-01-15T13:44:40;5.30;;;2.80;;
84616;SDS011;74846;51.126;16.944;2024-01-15T13:47:07;9.40;;;3.70;;
84616;SDS011;74846;51.126;16.944;2024-01-15T13:49:34;8.30;;;3.30;;
84616;SDS011;74846;51.126;16.944;2024-01-15T13:52:02;5.30;;;2.80;;
84616;SDS011;74846;51.126;16.944;2024-01-15T13:54:30;5.50;;;2.80;;
84616;SDS011;74846;51.126;16.944;2024-01-15T13:57:11;6.80;;;2.40;;
84616;SDS011;74846;51.126;16.944;2024-01-15T13:59:38;6.30;;;3.00;;
84616;SDS011;74846;51.126;16.944;2024-01-15T14:02:05;4.50;;;2.40;;
84616;SDS011;74846;51.126;16.944;2024-01-15T14:04:31;4.50;;;2.20;;
84616;SDS011;74846;51.126;16.944;2024-01-15T14:06:58;5.70;;;2.20;;
84616;SDS011;74846;51.126;16.944;2024-01-15T14:09:25;6.60;;;2.80;;
84616;SDS011;74846;51.126;16.944;2024-01-15T14:11:51;5.30;;;2.10;;
84616;SDS011;74846;51.126;16.944;2024-01-15T14:14:18;6.70;;;2.50;;
84616;SDS011;74846;51.126;16.944;2024-01-15T14:16:45;7.10;;;3.10;;
84616;SDS011;74846;51.126;16.944;2024-01-15T14:19:12;6.20;;;2.70;;
84616;SDS011;74846;51.126;16.944;2024-01-15T14:21:39;5.70;;;2.50;;
84616;SDS011;74846;51.126;16.944;2024-01-15T14:24:05;7.30;;;3.30;;
84616;SDS011;74846;51.126;16.944;2024-01-15T14:26:34;3.50;;;1.90;;
84616;SDS011;74846;51.126;16.944;2024-01-15T14:29:01;4.50;;;2.60;;
84616;SDS011;74846;51.126;16.944;2024-01-15T14:31:27;6.70;;;2.40;;
84616;SDS011;74846;51.126;16.944;2024-01-15T14:33:54;5.20;;;2.40;;
84616;SDS011;74846;51.126;16.944;2024-01-15T14:36:25;5.40;;;2.40;;
84616;SDS011;74846;51.126;16.944;2024-01-15T14:38:52;6.90;;;3.10;;
84616;SDS011;74846;51.126;16.944;2024-01-15T14:41:19;6.90;;;3.10;;
84616;SDS011;74846;51.126;16.944;2024-01-15T14:43:45;4.30;;;2.50;;
84616;SDS011;74846;51.126;16.944;2024-01-15T14:46:12;6.00;;;2.80;;
84616;SDS011;74846;51.126;16.944;2024-01-15T14:48:39;5.30;;;2.70;;
84616;SDS011;74846;51.126;16.944;2024-01-15T14:51:06;4.10;;;2.30;;
84616;SDS011;74846;51.126;16.944;2024-01-15T14:53:33;4.10;;;1.80;;